Terminal Aerodrome Forecast
Issued by NWS Mt. Holly, NJ

Home | Current Version | Previous Version | Text Only | Print | Product List | Glossary On
Versions: 1 2 3 4 5 6 7 8 9 10 11 12 13 14 15 16 17
945
FTUS41 KPHI 182324
TAFRDG
TAF
KRDG 182324Z 1900/1924 16008KT 6SM -SHRA OVC060
      TEMPO 1900/1902 3SM SHRA OVC035
     FM190200 18012G22KT P6SM VCSH OVC030 WS020/21040KT
     FM190500 21015G25KT 3SM SHRA SCT008 OVC015 WS020/21045KT
     FM191000 28020G32KT P6SM VCSH OVC025
     FM191200 30020G38KT P6SM BKN035=

USA.gov is the U.S. government's official web portal to all federal, state and local government web resources and services.